Time;durP1;ratioP1;P1;durP2;ratioP2;P2;SDS_P1;SDS_P2;PMS_P1;PMS_P2;Temp;Humidity;BMP_temperature;BMP_pressure;BME280_temperature;BME280_humidity;BME280_pressure;Samples;Min_cycle;Max_cycle;Signal;HPM_P1;HPM_P2
2022/08/26 00:00:23;;;;;;;5.50;1.40;;;;;;;16.34;85.78;100872.13;5037181;28;20052;-70
2022/08/26 00:02:49;;;;;;;7.93;1.42;;;;;;;16.31;85.76;100874.44;5019854;28;20533;-69
2022/08/26 00:05:14;;;;;;;5.60;1.10;;;;;;;16.25;85.98;100869.31;5038579;28;20021;-70
2022/08/26 00:07:40;;;;;;;6.90;1.48;;;;;;;16.28;85.96;100871.47;5037480;28;20060;-69
2022/08/26 00:10:06;;;;;;;5.10;1.27;;;;;;;16.28;85.69;100875.06;5037017;28;20044;-69
2022/08/26 00:12:31;;;;;;;6.05;1.25;;;;;;;16.26;86.01;100871.75;5038408;28;20071;-69
2022/08/26 00:14:57;;;;;;;4.95;1.23;;;;;;;16.28;85.85;100869.47;5010915;28;20033;-69
2022/08/26 00:17:22;;;;;;;5.72;0.95;;;;;;;16.24;85.79;100871.28;5037792;28;20026;-69
2022/08/26 00:19:48;;;;;;;8.73;1.48;;;;;;;16.20;85.90;100872.25;5037228;28;20029;-69
2022/08/26 00:22:13;;;;;;;3.35;1.08;;;;;;;16.23;86.18;100872.41;5036805;28;20049;-70
2022/08/26 00:24:39;;;;;;;5.38;1.20;;;;;;;16.18;85.76;100875.34;5000791;28;20034;-70
2022/08/26 00:27:04;;;;;;;8.40;1.60;;;;;;;16.16;85.99;100872.06;5036223;28;20025;-70
2022/08/26 00:29:33;;;;;;;5.15;1.10;;;;;;;16.15;85.48;100876.00;5020132;28;20083;-69
2022/08/26 00:31:59;;;;;;;3.83;0.95;;;;;;;16.12;85.79;100878.63;5037191;28;20559;-69
2022/08/26 00:34:24;;;;;;;5.18;1.23;;;;;;;16.10;85.65;100884.53;5004274;28;20025;-69
2022/08/26 00:36:50;;;;;;;6.05;1.00;;;;;;;16.04;85.92;100878.25;5038073;28;20030;-70
2022/08/26 00:39:16;;;;;;;4.15;1.23;;;;;;;16.05;85.70;100876.31;5029944;28;20029;-70
2022/08/26 00:41:42;;;;;;;3.42;0.88;;;;;;;15.99;85.55;100881.22;5003868;28;20088;-69
2022/08/26 00:44:09;;;;;;;4.35;1.08;;;;;;;15.95;85.61;100879.38;5026060;28;20029;-70
2022/08/26 00:46:37;;;;;;;3.15;0.90;;;;;;;15.93;85.85;100876.06;5003829;28;20434;-69
2022/08/26 00:49:13;;;;;;;2.88;1.00;;;;;;;15.92;85.67;100878.03;5042504;28;20037;-70
2022/08/26 00:51:59;;;;;;;5.40;1.30;;;;;;;15.85;86.13;100878.50;5022771;28;20033;-70
2022/08/26 00:54:25;;;;;;;8.55;1.00;;;;;;;15.82;85.83;100881.97;5036346;28;20033;-69
2022/08/26 00:57:04;;;;;;;5.43;1.00;;;;;;;15.81;85.85;100885.06;5036402;28;20437;-70
2022/08/26 00:59:30;;;;;;;6.10;1.38;;;;;;;15.78;85.40;100880.09;5036133;28;20041;-70
2022/08/26 01:01:55;;;;;;;3.50;0.80;;;;;;;15.76;85.46;100876.78;5037206;28;20083;-69
2022/08/26 01:04:21;;;;;;;4.53;1.20;;;;;;;15.74;85.65;100871.53;5002789;28;20079;-69
2022/08/26 01:06:48;;;;;;;6.82;1.65;;;;;;;15.77;85.51;100872.88;5019501;28;20044;-69
2022/08/26 01:09:13;;;;;;;5.07;1.00;;;;;;;15.67;85.94;100875.88;5003004;28;20485;-69
2022/08/26 01:11:39;;;;;;;6.13;1.30;;;;;;;15.65;85.90;100873.38;5000200;28;20032;-69
2022/08/26 01:14:04;;;;;;;5.32;0.98;;;;;;;15.62;86.04;100869.25;5036260;28;20087;-69
2022/08/26 01:16:31;;;;;;;6.95;1.17;;;;;;;15.61;85.83;100858.41;5011992;28;20025;-69
2022/08/26 01:19:02;;;;;;;7.25;1.55;;;;;;;15.54;86.14;100866.41;5017890;28;20030;-69
2022/08/26 01:21:30;;;;;;;6.47;1.20;;;;;;;15.53;86.17;100875.97;5020011;28;20052;-69
2022/08/26 01:23:56;;;;;;;5.60;0.98;;;;;;;15.57;86.06;100876.97;5019364;28;20102;-69
2022/08/26 01:26:27;;;;;;;4.57;0.90;;;;;;;15.49;86.06;100870.19;5003134;28;20029;-69
2022/08/26 01:28:54;;;;;;;4.32;1.00;;;;;;;15.45;86.15;100869.16;5019619;28;20112;-69
2022/08/26 01:31:23;;;;;;;5.80;1.05;;;;;;;15.46;85.96;100878.38;5000225;28;20053;-69
2022/08/26 01:34:05;;;;;;;5.50;1.23;;;;;;;15.42;86.08;100876.19;5018772;28;20042;-69
2022/08/26 01:36:31;;;;;;;4.75;1.27;;;;;;;15.37;86.46;100883.91;5036867;28;20692;-69
2022/08/26 01:38:56;;;;;;;5.45;1.40;;;;;;;15.36;86.51;100885.88;5035327;28;20041;-69
2022/08/26 01:41:22;;;;;;;4.03;1.20;;;;;;;15.34;86.26;100888.16;5037018;28;20030;-69
2022/08/26 01:43:50;;;;;;;3.45;0.93;;;;;;;15.34;86.26;100888.16;5017940;28;20044;-70
2022/08/26 01:46:15;;;;;;;5.47;1.20;;;;;;;15.30;86.10;100895.53;5019669;28;20038;-69
2022/08/26 01:48:41;;;;;;;6.00;1.20;;;;;;;15.29;86.38;100888.28;5035299;28;20030;-69
2022/08/26 01:51:06;;;;;;;3.95;1.27;;;;;;;15.26;86.59;100883.31;5019068;28;20084;-69
2022/08/26 01:53:32;;;;;;;3.13;0.80;;;;;;;15.23;86.45;100883.94;5015674;28;20040;-69
2022/08/26 01:55:58;;;;;;;4.22;1.30;;;;;;;15.21;86.69;100889.06;5040333;28;20494;-69
2022/08/26 01:58:27;;;;;;;6.25;1.30;;;;;;;15.16;86.74;100891.97;4991064;28;20025;-69
2022/08/26 02:00:53;;;;;;;4.13;0.98;;;;;;;15.15;86.68;100887.50;5009768;28;20058;-69
2022/08/26 02:03:21;;;;;;;7.93;1.17;;;;;;;15.10;86.66;100891.25;5018554;28;20393;-69
2022/08/26 02:05:56;;;;;;;4.70;0.93;;;;;;;15.11;86.70;100880.91;5035003;28;20180;-69
2022/08/26 02:08:42;;;;;;;4.57;1.00;;;;;;;15.06;86.93;100878.22;5036298;28;20033;-69
2022/08/26 02:11:08;;;;;;;2.75;1.10;;;;;;;15.04;86.67;100880.50;5034560;28;20110;-70
2022/08/26 02:13:36;;;;;;;4.55;1.10;;;;;;;15.02;86.61;100883.63;5018414;28;20118;-69
2022/08/26 02:16:02;;;;;;;6.30;1.00;;;;;;;15.01;86.66;100892.31;5031362;28;20031;-69
2022/08/26 02:18:28;;;;;;;2.90;0.80;;;;;;;15.02;86.72;100893.97;5035034;28;20436;-69
2022/08/26 02:20:54;;;;;;;4.85;1.02;;;;;;;15.00;86.45;100897.09;5019431;28;20037;-70
2022/08/26 02:23:19;;;;;;;4.10;1.10;;;;;;;14.95;86.95;100900.81;5020921;28;20051;-69
2022/08/26 02:25:50;;;;;;;3.00;0.90;;;;;;;14.92;87.06;100895.84;5055765;28;20044;-69
2022/08/26 02:28:16;;;;;;;3.85;1.20;;;;;;;14.91;86.90;100898.97;5022412;28;20044;-69
2022/08/26 02:30:42;;;;;;;6.63;1.10;;;;;;;14.89;86.96;100904.03;4986843;28;20030;-69
2022/08/26 02:33:07;;;;;;;4.25;1.02;;;;;;;14.86;87.25;100896.28;5005181;28;20028;-70
2022/08/26 02:35:33;;;;;;;4.93;0.82;;;;;;;14.84;87.33;100902.19;5038027;28;20032;-69
2022/08/26 02:37:59;;;;;;;5.80;1.10;;;;;;;14.81;87.40;100902.81;5037948;28;20367;-69
2022/08/26 02:40:27;;;;;;;5.70;1.08;;;;;;;14.80;87.07;100898.38;5055906;28;20029;-69
2022/08/26 02:42:52;;;;;;;4.22;1.08;;;;;;;14.77;87.21;100901.78;5037829;28;20040;-70
2022/08/26 02:45:18;;;;;;;6.53;1.00;;;;;;;14.77;87.35;100898.19;5005063;28;20477;-69
2022/08/26 02:47:44;;;;;;;4.13;1.20;;;;;;;14.74;87.43;100905.22;5021196;28;20041;-69
2022/08/26 02:50:09;;;;;;;4.97;1.00;;;;;;;14.71;87.41;100906.66;5037357;28;20515;-69
2022/08/26 02:52:35;;;;;;;4.40;1.20;;;;;;;14.70;87.48;100915.34;5042499;28;20055;-70
2022/08/26 02:55:00;;;;;;;2.50;0.85;;;;;;;14.70;87.57;100909.75;5054951;28;20041;-70
2022/08/26 02:57:26;;;;;;;7.03;1.38;;;;;;;14.67;87.34;100905.63;5055776;28;20044;-69
2022/08/26 02:59:51;;;;;;;6.03;1.60;;;;;;;14.66;87.56;100900.34;5004992;28;20029;-69
2022/08/26 03:02:17;;;;;;;5.40;1.30;;;;;;;14.63;88.13;100899.00;5021079;28;20040;-69
2022/08/26 03:04:42;;;;;;;4.65;1.30;;;;;;;14.63;87.70;100892.59;5021406;28;20033;-69
2022/08/26 03:07:08;;;;;;;4.95;1.55;;;;;;;14.61;87.89;100894.88;5055503;28;20346;-69
2022/08/26 03:09:33;;;;;;;4.30;1.20;;;;;;;14.60;87.95;100894.06;5004702;28;20032;-69
2022/08/26 03:11:59;;;;;;;3.00;1.00;;;;;;;14.57;87.60;100899.41;5021171;28;20028;-69
2022/08/26 03:14:24;;;;;;;5.30;1.00;;;;;;;14.56;87.57;100892.19;5055155;28;20075;-69
2022/08/26 03:16:53;;;;;;;5.30;1.20;;;;;;;14.52;87.62;100892.81;5029858;28;20040;-69
2022/08/26 03:19:19;;;;;;;4.40;1.30;;;;;;;14.53;87.31;100888.03;5055195;28;20477;-69
2022/08/26 03:21:44;;;;;;;3.75;1.00;;;;;;;14.49;87.81;100898.16;5055087;28;20056;-69
2022/08/26 03:24:10;;;;;;;5.22;1.23;;;;;;;14.48;87.75;100896.50;5036521;28;20033;-69
2022/08/26 03:26:35;;;;;;;5.18;0.90;;;;;;;14.46;87.61;100894.03;4989028;28;20362;-69
2022/08/26 03:31:45;;;;;;;6.00;1.20;;;;;;;14.45;87.81;100892.34;5050234;28;20649;-69
2022/08/26 03:34:10;;;;;;;4.95;1.40;;;;;;;14.41;88.04;100896.09;5031378;28;20032;-69
2022/08/26 03:36:36;;;;;;;4.70;1.10;;;;;;;14.38;87.72;100894.75;5024607;28;20393;-69
2022/08/26 03:39:02;;;;;;;5.53;1.10;;;;;;;14.37;88.09;100895.88;5040842;28;20037;-69
2022/08/26 03:41:27;;;;;;;7.32;1.65;;;;;;;14.36;88.12;100908.19;5059023;28;20033;-69
2022/08/26 03:43:53;;;;;;;7.60;1.25;;;;;;;14.35;87.96;100888.94;5038198;28;20061;-69
2022/08/26 03:46:19;;;;;;;5.45;1.35;;;;;;;14.31;88.37;100897.94;5058941;28;20025;-69
2022/08/26 03:48:44;;;;;;;7.03;1.48;;;;;;;14.31;88.57;100892.34;5043662;28;20033;-69
2022/08/26 03:51:11;;;;;;;6.18;1.42;;;;;;;14.34;88.82;100890.06;5042193;28;20280;-69
2022/08/26 03:53:37;;;;;;;4.95;1.40;;;;;;;14.30;88.70;100893.50;5058064;28;20033;-69
2022/08/26 03:56:03;;;;;;;6.82;1.50;;;;;;;14.30;88.90;100889.88;5058780;28;20036;-69
2022/08/26 03:58:30;;;;;;;10.23;1.40;;;;;;;14.33;89.00;100894.03;5058520;28;20436;-69
2022/08/26 04:00:56;;;;;;;4.68;1.38;;;;;;;14.32;88.99;100882.03;5041061;28;20499;-69
2022/08/26 04:06:07;;;;;;;4.53;1.27;;;;;;;14.30;89.59;100889.88;5058528;28;20047;-69
2022/08/26 04:08:32;;;;;;;7.80;1.50;;;;;;;14.30;90.12;100878.72;5058595;28;20033;-69
2022/08/26 04:11:00;;;;;;;5.07;1.48;;;;;;;14.28;89.54;100886.56;5024221;28;20037;-69
2022/08/26 04:13:26;;;;;;;7.60;1.58;;;;;;;14.31;89.51;100886.75;4992140;28;20428;-69
2022/08/26 04:15:51;;;;;;;6.03;1.52;;;;;;;14.30;89.41;100878.72;5033422;28;20032;-69
2022/08/26 04:18:17;;;;;;;7.00;1.48;;;;;;;14.37;89.47;100886.66;5058314;28;20497;-69
2022/08/26 04:20:43;;;;;;;6.53;1.88;;;;;;;14.29;89.85;100889.06;5058072;28;20040;-69
2022/08/26 04:23:08;;;;;;;5.53;1.67;;;;;;;14.28;89.43;100887.38;4992263;28;20054;-69
2022/08/26 04:25:34;;;;;;;7.45;2.00;;;;;;;14.29;89.46;100891.00;5004119;28;20109;-69
2022/08/26 04:27:59;;;;;;;4.40;1.40;;;;;;;14.27;89.72;100896.09;5020435;28;20029;-69
2022/08/26 04:30:25;;;;;;;7.05;1.58;;;;;;;14.27;88.88;100887.72;5002399;28;20029;-70
2022/08/26 04:32:50;;;;;;;5.35;1.38;;;;;;;14.24;89.13;100889.16;5014368;28;20044;-69
2022/08/26 04:35:16;;;;;;;5.78;1.30;;;;;;;14.25;89.04;100892.78;5036725;28;20488;-70
2022/08/26 04:37:42;;;;;;;6.05;1.50;;;;;;;14.18;89.35;100897.94;5037692;28;20060;-69
2022/08/26 04:40:08;;;;;;;5.32;1.40;;;;;;;14.18;89.23;100898.78;5037138;28;20044;-69
2022/08/26 04:42:34;;;;;;;4.53;1.30;;;;;;;14.16;89.09;100894.63;5017157;28;20018;-69
2022/08/26 04:45:00;;;;;;;6.75;2.15;;;;;;;14.16;88.83;100894.63;5037878;28;20040;-69
2022/08/26 04:47:25;;;;;;;3.63;1.10;;;;;;;14.11;89.20;100894.72;5003574;28;20021;-69
2022/08/26 04:49:54;;;;;;;3.97;1.13;;;;;;;14.07;88.95;100894.53;5036674;28;20163;-69
2022/08/26 04:52:19;;;;;;;6.50;1.40;;;;;;;14.02;88.92;100889.84;5036774;28;20079;-69
2022/08/26 04:54:45;;;;;;;4.82;1.20;;;;;;;14.03;89.10;100890.69;5035893;28;20033;-70
2022/08/26 04:57:10;;;;;;;4.45;1.20;;;;;;;14.01;89.04;100892.94;5037279;28;20025;-69
2022/08/26 04:59:36;;;;;;;9.10;1.40;;;;;;;14.01;88.87;100896.59;5050874;28;20044;-69
2022/08/26 05:02:02;;;;;;;5.53;1.20;;;;;;;14.00;88.67;100896.88;4983832;28;20022;-69
2022/08/26 05:04:28;;;;;;;4.53;1.42;;;;;;;13.96;88.87;100902.25;5000556;28;20087;-69
2022/08/26 05:06:53;;;;;;;3.47;1.00;;;;;;;13.92;89.06;100895.63;5003124;28;20025;-70
2022/08/26 05:09:19;;;;;;;3.97;1.20;;;;;;;13.95;88.97;100900.59;5036914;28;20037;-69
2022/08/26 05:11:45;;;;;;;8.05;1.17;;;;;;;13.90;88.92;100886.75;5037455;28;20033;-69
2022/08/26 05:14:10;;;;;;;5.95;1.40;;;;;;;13.85;89.17;100887.66;5003298;28;20037;-69
2022/08/26 05:16:36;;;;;;;5.07;1.58;;;;;;;13.84;89.21;100896.31;5034119;28;20549;-69
2022/08/26 05:19:03;;;;;;;4.88;1.50;;;;;;;13.82;89.50;100893.84;5019156;28;20367;-69
2022/08/26 05:21:28;;;;;;;4.03;1.05;;;;;;;13.83;89.50;100905.84;5017363;28;20057;-69
2022/08/26 05:23:54;;;;;;;4.95;1.25;;;;;;;13.77;89.63;100898.69;4992028;28;20533;-69
2022/08/26 05:26:24;;;;;;;6.20;1.45;;;;;;;13.76;89.69;100903.47;5026341;28;20488;-69
2022/08/26 05:28:50;;;;;;;5.47;1.40;;;;;;;13.81;89.63;100896.94;5021586;28;20448;-69
2022/08/26 05:31:22;;;;;;;4.65;1.30;;;;;;;13.79;89.49;100902.84;5018603;28;20120;-69
2022/08/26 05:33:47;;;;;;;3.67;1.45;;;;;;;13.79;89.58;100902.00;5014433;28;20549;-70
2022/08/26 05:36:15;;;;;;;4.15;1.20;;;;;;;13.81;89.82;100899.72;5037003;28;20037;-70
2022/08/26 05:38:41;;;;;;;4.85;1.33;;;;;;;13.80;90.29;100900.88;5021438;28;20033;-69
2022/08/26 05:41:18;;;;;;;6.07;1.50;;;;;;;13.86;90.11;100902.44;5042030;28;20036;-69
2022/08/26 05:43:43;;;;;;;5.57;1.30;;;;;;;13.85;90.61;100898.81;5014841;28;20032;-69
2022/08/26 05:46:09;;;;;;;7.78;1.40;;;;;;;13.87;91.30;100895.72;5015117;28;20025;-69
2022/08/26 05:48:34;;;;;;;5.20;1.42;;;;;;;13.94;91.54;100900.91;5044478;28;20037;-69
2022/08/26 05:51:03;;;;;;;3.83;1.08;;;;;;;14.02;91.65;100898.22;5034107;28;20021;-69
2022/08/26 05:53:29;;;;;;;3.80;1.27;;;;;;;14.07;92.37;100897.31;5002161;28;20029;-69
2022/08/26 05:55:55;;;;;;;4.10;1.55;;;;;;;14.16;92.35;100897.44;5018337;28;21570;-69
2022/08/26 05:58:20;;;;;;;5.88;1.42;;;;;;;14.21;93.30;100903.75;5001993;28;20033;-70
2022/08/26 06:00:56;;;;;;;3.72;1.00;;;;;;;14.29;93.71;100907.75;4999830;28;20544;-69
2022/08/26 06:03:22;;;;;;;5.03;1.88;;;;;;;14.37;94.85;100893.06;5015454;28;20033;-69
2022/08/26 06:05:47;;;;;;;4.60;1.70;;;;;;;14.47;96.93;100903.22;5021632;28;20486;-70
2022/08/26 06:08:13;;;;;;;5.72;1.60;;;;;;;14.58;96.51;100906.69;5018185;28;20021;-69
2022/08/26 06:10:46;;;;;;;3.45;1.52;;;;;;;14.70;94.14;100909.75;4999230;28;20625;-70
2022/08/26 06:13:12;;;;;;;4.82;1.45;;;;;;;14.82;93.52;100912.03;4979999;28;20026;-71
2022/08/26 06:15:40;;;;;;;6.32;1.23;;;;;;;14.93;96.62;100914.31;5011532;28;20087;-70
2022/08/26 06:18:06;;;;;;;8.32;1.50;;;;;;;15.05;97.88;100902.56;4986209;28;20052;-70
2022/08/26 06:20:31;;;;;;;7.10;1.55;;;;;;;15.17;99.39;100913.19;5018912;28;20465;-70
2022/08/26 06:25:41;;;;;;;8.07;1.80;;;;;;;15.46;99.82;100914.75;5035979;28;20025;-70
2022/08/26 06:28:07;;;;;;;6.15;1.40;;;;;;;15.58;98.92;100909.44;5000979;28;20068;-70
2022/08/26 06:30:36;;;;;;;7.72;1.90;;;;;;;15.70;96.84;100906.91;5030913;28;20037;-70
2022/08/26 06:33:02;;;;;;;4.75;1.48;;;;;;;15.83;94.87;100903.19;5018928;28;20029;-70
2022/08/26 06:35:27;;;;;;;8.88;1.73;;;;;;;15.97;94.23;100903.13;5018458;28;20025;-70
2022/08/26 06:37:53;;;;;;;7.45;1.58;;;;;;;16.10;95.26;100901.34;5000798;28;20042;-70
2022/08/26 06:40:21;;;;;;;5.22;1.50;;;;;;;16.26;94.07;100899.78;5018653;28;20041;-70
2022/08/26 06:42:46;;;;;;;6.47;1.50;;;;;;;16.43;92.70;100899.03;5012009;28;20038;-70
2022/08/26 06:45:12;;;;;;;5.68;1.65;;;;;;;16.58;93.64;100905.38;5035722;28;20029;-70
2022/08/26 06:47:38;;;;;;;4.40;1.58;;;;;;;16.73;93.73;100905.72;5001737;28;20057;-70
2022/08/26 06:50:03;;;;;;;6.13;2.00;;;;;;;16.89;93.55;100908.13;5034774;28;20033;-70
2022/08/26 06:52:29;;;;;;;5.35;1.67;;;;;;;17.04;91.64;100910.44;5001431;28;20037;-70
2022/08/26 06:54:54;;;;;;;5.22;1.52;;;;;;;17.19;91.74;100903.53;5017613;28;20033;-70
2022/08/26 06:57:20;;;;;;;5.78;1.65;;;;;;;17.34;91.56;100910.63;4998138;28;20041;-70
2022/08/26 06:59:46;;;;;;;5.90;1.60;;;;;;;17.48;88.88;100911.28;5017322;28;20055;-70
2022/08/26 07:02:12;;;;;;;4.80;1.60;;;;;;;17.64;88.70;100914.44;5032456;28;20110;-70
2022/08/26 07:04:37;;;;;;;7.05;1.88;;;;;;;17.82;89.22;100918.06;5021570;28;20038;-70
2022/08/26 07:07:03;;;;;;;6.07;1.40;;;;;;;17.95;89.42;100925.47;4989094;28;20397;-70
2022/08/26 07:09:31;;;;;;;8.52;1.70;;;;;;;18.04;88.67;100929.06;5020701;28;20042;-70
2022/08/26 07:11:56;;;;;;;5.47;1.50;;;;;;;18.12;88.72;100929.41;5017556;28;20041;-70
2022/08/26 07:14:24;;;;;;;5.05;1.48;;;;;;;18.22;87.76;100937.44;5037889;28;20092;-70
2022/08/26 07:16:49;;;;;;;7.82;1.42;;;;;;;18.31;87.88;100933.47;5029808;28;20060;-70
2022/08/26 07:19:16;;;;;;;6.72;1.55;;;;;;;18.43;87.48;100923.50;5018509;28;20029;-70
2022/08/26 07:21:41;;;;;;;8.48;1.70;;;;;;;18.50;87.29;100924.63;5005476;28;20041;-70
2022/08/26 07:24:08;;;;;;;10.32;1.67;;;;;;;18.61;86.21;100932.66;5020937;28;20564;-70
2022/08/26 07:26:33;;;;;;;6.78;1.67;;;;;;;18.68;86.10;100930.16;4988667;28;20036;-70
2022/08/26 07:28:59;;;;;;;8.25;1.50;;;;;;;18.82;85.23;100927.97;5004935;28;20080;-70
2022/08/26 07:31:26;;;;;;;7.07;1.40;;;;;;;19.01;84.78;100921.91;5014066;28;20513;-70
2022/08/26 07:33:52;;;;;;;8.27;1.65;;;;;;;19.14;84.71;100925.63;5009690;28;20564;-70
2022/08/26 07:36:18;;;;;;;7.50;1.60;;;;;;;19.25;84.37;100921.25;5018864;28;20037;-70
2022/08/26 07:38:44;;;;;;;5.57;1.45;;;;;;;19.46;83.42;100928.84;5004825;28;20036;-70
2022/08/26 07:41:09;;;;;;;5.72;1.50;;;;;;;19.61;82.76;100919.75;5018386;28;20095;-70
2022/08/26 07:43:35;;;;;;;8.00;1.52;;;;;;;19.77;82.59;100928.44;5022629;28;20083;-70
2022/08/26 07:46:01;;;;;;;7.88;1.35;;;;;;;19.93;81.89;100920.16;5004732;28;20036;-70
2022/08/26 07:48:27;;;;;;;9.45;1.60;;;;;;;20.04;80.88;100925.00;5037816;28;20025;-70
2022/08/26 07:50:52;;;;;;;9.18;1.88;;;;;;;20.07;81.20;100915.84;5003992;28;20041;-70
2022/08/26 07:53:19;;;;;;;6.20;1.50;;;;;;;20.24;80.77;100928.09;5019463;28;20034;-70
2022/08/26 07:55:45;;;;;;;7.97;2.20;;;;;;;20.28;80.78;100920.56;5004773;28;20025;-70
2022/08/26 07:58:10;;;;;;;8.82;1.92;;;;;;;20.42;80.47;100923.06;5004824;28;20394;-70
2022/08/26 08:00:36;;;;;;;9.43;1.58;;;;;;;20.61;79.83;100925.34;5001344;28;20030;-70
2022/08/26 08:03:02;;;;;;;11.10;1.77;;;;;;;20.75;79.03;100926.66;5006771;28;20036;-70
2022/08/26 08:05:31;;;;;;;7.07;1.60;;;;;;;20.90;78.61;100921.47;5021189;28;20123;-70
2022/08/26 08:08:02;;;;;;;10.35;2.38;;;;;;;21.00;77.79;100926.63;5037271;28;20037;-70
2022/08/26 08:10:28;;;;;;;10.88;1.88;;;;;;;21.11;77.81;100921.31;5018107;28;20037;-70
2022/08/26 08:12:54;;;;;;;13.15;2.30;;;;;;;21.14;77.24;100924.25;5020269;28;20041;-70
2022/08/26 08:15:23;;;;;;;9.85;1.80;;;;;;;21.16;77.37;100921.06;5034474;28;20040;-70
2022/08/26 08:17:49;;;;;;;10.90;2.05;;;;;;;21.34;76.83;100918.78;5014940;28;20068;-70
2022/08/26 08:20:15;;;;;;;7.65;1.40;;;;;;;21.51;76.25;100921.38;5001111;28;20034;-70
2022/08/26 08:22:41;;;;;;;10.50;1.77;;;;;;;21.58;75.73;100924.38;5032775;28;20045;-70
2022/08/26 08:25:07;;;;;;;12.95;2.28;;;;;;;21.69;75.35;100918.22;4993081;28;20034;-70
2022/08/26 08:27:34;;;;;;;6.72;1.95;;;;;;;21.77;74.85;100926.56;5035714;28;20100;-70
2022/08/26 08:29:59;;;;;;;10.57;2.17;;;;;;;21.76;74.65;100929.75;5020051;28;20112;-70
2022/08/26 08:32:25;;;;;;;14.20;2.35;;;;;;;21.84;74.96;100923.94;5020534;28;20025;-70
2022/08/26 08:34:50;;;;;;;13.55;2.38;;;;;;;21.94;74.13;100922.59;5017745;28;20474;-70
2022/08/26 08:37:16;;;;;;;9.70;2.15;;;;;;;21.99;73.71;100935.66;5037796;28;20036;-70
2022/08/26 08:39:41;;;;;;;11.85;2.05;;;;;;;22.14;73.60;100934.03;5036701;28;20033;-70
2022/08/26 08:42:32;;;;;;;5.60;1.55;;;;;;;22.31;72.71;100933.72;5003121;28;20719;-70
2022/08/26 08:44:58;;;;;;;11.30;2.33;;;;;;;22.32;72.02;100932.53;5051754;28;20040;-70
2022/08/26 08:47:23;;;;;;;8.32;1.92;;;;;;;22.38;71.24;100935.91;4995545;28;20073;-70
2022/08/26 08:49:49;;;;;;;9.23;1.67;;;;;;;22.41;71.19;100933.19;5038032;28;20036;-70
2022/08/26 08:52:29;;;;;;;8.32;1.70;;;;;;;22.43;70.95;100936.47;5001249;28;20030;-70
2022/08/26 08:54:55;;;;;;;9.30;1.80;;;;;;;22.47;71.00;100928.06;5019000;28;20040;-70
2022/08/26 08:57:48;;;;;;;7.70;1.75;;;;;;;22.46;70.56;100932.09;5001682;28;20030;-70
2022/08/26 09:00:17;;;;;;;10.48;2.08;;;;;;;22.34;69.83;100924.50;4993612;28;20068;-70
2022/08/26 09:02:46;;;;;;;7.53;1.80;;;;;;;22.41;70.21;100924.69;5033208;28;20624;-70
2022/08/26 09:05:30;;;;;;;10.23;2.20;;;;;;;22.43;70.41;100935.66;5036066;28;20029;-70
2022/08/26 09:08:03;;;;;;;10.77;2.38;;;;;;;;;;5017643;28;20515;-70
2022/08/26 09:10:43;;;;;;;8.80;2.15;;;;;;;22.45;69.75;100930.44;5016708;28;20034;-70
2022/08/26 09:13:11;;;;;;;10.27;1.65;;;;;;;22.53;69.31;100935.91;4996772;28;20073;-70
2022/08/26 09:15:39;;;;;;;7.18;1.60;;;;;;;22.59;68.89;100932.81;5001524;28;20041;-70
2022/08/26 09:18:32;;;;;;;5.47;1.40;;;;;;;22.65;67.98;100926.53;5037343;28;20033;-70
2022/08/26 09:21:09;;;;;;;10.27;1.85;;;;;;;22.77;67.48;100921.94;5036777;28;20051;-71
2022/08/26 09:23:36;;;;;;;11.07;1.98;;;;;;;22.81;67.46;100923.66;5016412;28;20393;-70
2022/08/26 09:26:12;;;;;;;10.05;1.48;;;;;;;22.87;67.05;100922.19;5038708;28;20025;-70
2022/08/26 09:28:37;;;;;;;8.95;1.50;;;;;;;22.95;66.31;100911.84;5026903;28;20029;-70
2022/08/26 09:31:12;;;;;;;10.18;1.77;;;;;;;23.03;65.78;100919.34;5022524;28;20512;-70
2022/08/26 09:33:39;;;;;;;10.20;1.80;;;;;;;23.08;65.36;100916.22;5022075;28;20041;-70
2022/08/26 09:36:43;;;;;;;7.40;1.50;;;;;;;23.21;65.02;100908.44;5014394;28;20040;-70
2022/08/26 09:39:26;;;;;;;10.10;1.67;;;;;;;23.28;64.35;100917.09;4989088;28;20099;-70
2022/08/26 09:42:12;;;;;;;9.20;1.80;;;;;;;23.30;63.47;100906.22;5039371;28;20044;-70
2022/08/26 09:44:58;;;;;;;5.97;1.77;;;;;;;23.37;63.61;100909.22;5014902;28;20040;-70
2022/08/26 09:47:31;;;;;;;7.80;1.38;;;;;;;23.49;63.56;100907.44;5038851;28;20416;-70
2022/08/26 09:50:19;;;;;;;8.75;1.77;;;;;;;23.48;61.97;100903.75;5044235;28;20060;-70
2022/08/26 09:52:44;;;;;;;8.88;1.85;;;;;;;23.53;61.23;100897.78;5033994;28;20037;-70
2022/08/26 09:55:13;;;;;;;9.00;1.77;;;;;;;23.65;61.42;100902.47;5021958;28;20025;-70
2022/08/26 09:57:44;;;;;;;7.78;1.50;;;;;;;23.86;61.36;100905.78;5034509;28;20108;-70
2022/08/26 10:00:26;;;;;;;8.07;1.23;;;;;;;23.99;60.31;100903.59;5038839;28;20388;-70
2022/08/26 10:02:52;;;;;;;8.00;1.50;;;;;;;24.10;58.66;100892.47;5022236;28;20037;-70
2022/08/26 10:05:26;;;;;;;8.43;1.70;;;;;;;24.22;57.55;100897.94;5038419;28;20047;-70
2022/08/26 10:07:51;;;;;;;6.10;1.60;;;;;;;24.22;57.13;100899.97;5003098;28;20044;-70
2022/08/26 10:10:32;;;;;;;10.10;2.08;;;;;;;24.24;56.94;100895.56;5055932;28;20420;-70
2022/08/26 10:13:10;;;;;;;7.13;1.40;;;;;;;24.29;57.85;100889.56;5003699;28;20613;-70
2022/08/26 10:15:51;;;;;;;7.57;1.50;;;;;;;24.39;57.26;100885.25;5050611;28;20037;-70
2022/08/26 10:18:30;;;;;;;6.88;1.48;;;;;;;24.48;56.09;100883.00;5020994;28;20025;-70
2022/08/26 10:21:09;;;;;;;6.03;1.20;;;;;;;24.58;54.24;100890.06;5024457;28;20512;-71
2022/08/26 10:23:43;;;;;;;6.75;1.23;;;;;;;24.72;54.00;100886.66;4987625;28;20029;-70
2022/08/26 10:26:12;;;;;;;5.10;1.30;;;;;;;24.88;54.60;100887.31;5004659;28;20033;-70
2022/08/26 10:28:53;;;;;;;5.65;1.10;;;;;;;25.07;54.09;100877.81;5028618;28;20500;-70
2022/08/26 10:31:28;;;;;;;3.78;1.35;;;;;;;25.23;53.55;100874.00;5037926;28;20029;-70
2022/08/26 10:33:54;;;;;;;3.33;1.02;;;;;;;25.34;51.82;100874.97;5034880;28;20390;-70
2022/08/26 10:39:07;;;;;;;6.00;1.20;;;;;;;25.48;50.99;100863.78;5023672;28;20030;-70
2022/08/26 10:41:36;;;;;;;6.68;1.58;;;;;;;25.69;50.78;100866.06;5004503;28;20555;-70
2022/08/26 10:44:02;;;;;;;3.92;1.05;;;;;;;25.83;50.64;100871.13;5004975;28;20040;-70
2022/08/26 10:46:38;;;;;;;6.53;1.40;;;;;;;25.94;50.23;100863.53;5004292;28;20033;-70
2022/08/26 10:49:14;;;;;;;4.35;1.10;;;;;;;25.94;49.78;100857.84;5037907;28;20405;-70
2022/08/26 10:52:01;;;;;;;4.90;1.10;;;;;;;25.93;49.69;100861.88;5005267;28;20033;-70
2022/08/26 10:54:49;;;;;;;5.47;1.48;;;;;;;25.83;49.24;100865.44;5036865;28;20033;-70
2022/08/26 10:57:39;;;;;;;5.25;1.20;;;;;;;25.64;48.81;100863.56;5039446;28;20106;-70
2022/08/26 11:03:20;;;;;;;3.35;1.27;;;;;;;25.47;47.66;100861.34;5055492;28;20089;-70
2022/08/26 11:06:07;;;;;;;6.03;1.30;;;;;;;25.33;48.70;100851.41;5023252;28;20025;-70
2022/08/26 11:08:32;;;;;;;7.90;1.20;;;;;;;25.15;48.71;100853.19;5023802;28;20488;-70
2022/08/26 11:10:58;;;;;;;5.13;0.98;;;;;;;25.22;49.24;100849.66;5021703;28;20037;-70
2022/08/26 11:13:55;;;;;;;7.00;1.42;;;;;;;25.24;50.01;100852.91;5021319;28;20040;-71
2022/08/26 11:16:42;;;;;;;5.93;1.20;;;;;;;25.21;49.49;100854.50;5035220;28;20485;-70
2022/08/26 11:19:09;;;;;;;4.28;0.93;;;;;;;25.30;50.68;100848.53;5021398;28;20040;-70
2022/08/26 11:22:06;;;;;;;5.68;1.15;;;;;;;25.38;50.10;100844.53;5020373;28;20049;-70
2022/08/26 11:24:54;;;;;;;3.33;1.10;;;;;;;25.45;50.28;100847.50;5040166;28;20033;-70
2022/08/26 11:27:25;;;;;;;5.72;1.00;;;;;;;25.45;47.04;100844.66;5037632;28;20021;-70
2022/08/26 11:29:59;;;;;;;4.72;1.10;;;;;;;25.47;46.77;100833.72;5020846;28;20047;-70
2022/08/26 11:32:43;;;;;;;6.25;1.02;;;;;;;25.61;47.99;100845.25;5021372;28;20068;-70
2022/08/26 11:35:10;;;;;;;8.40;1.30;;;;;;;25.72;47.54;100833.19;5040205;28;20037;-70
2022/08/26 11:37:36;;;;;;;8.30;1.30;;;;;;;25.82;47.68;100836.13;5037395;28;20033;-70
2022/08/26 11:40:05;;;;;;;4.60;1.10;;;;;;;26.00;48.50;100839.19;5037545;28;20102;-70
2022/08/26 11:42:41;;;;;;;4.28;1.40;;;;;;;26.05;46.86;100841.69;5004329;28;20028;-70
2022/08/26 11:45:21;;;;;;;6.80;1.50;;;;;;;26.10;45.74;100836.81;5036593;28;20111;-70